Pineland, FL

9:57 PM EDT on September 19, 2014 (GMT -0400)
Calusa Ridge | Change Station
CLOSE
Current Station
Personal Weather Station
Location: Bokeelia, FL
Elevation: 13 ft
Nearby Weather Stations

Elev 13 ft 26.64 °N, 82.13 °W | Updated 1 minute ago

Rain
Rain
73.8 °F
Feels Like 71 °F
N
3.0
Wind Variable Wind from South
Gusts 3.0 mph

Today
High -- | Low -- °F
--% Chance of Precip.
Yesterday
High -- | Low -- °F
Precip. -- in
7:15 AM 7:28 PM
Waning Crescent, 15% visible
Pressure 29.95 in
Visibility 3.0 miles
Clouds Few 1800 ft
Mostly Cloudy 3100 ft
Overcast 4700 ft
Heat Index 71 °F
Dew Point 72 °F
Humidity 95%
Rainfall 0.60 in
Snow Depth Not available.
UV 0 out of 12
Pollen 2.00 out of 12
Air Quality Not available.
Flu Activity Not available.
SPECI KFMY 200142Z 28005KT 3SM -RA BR FEW018 BKN031 OVC047 23/22 A2995 RMK AO2 RAB25 P0018 T02280217

More Conditions Fewer Conditions

Pressure 29.95 in
Visibility 3.0 miles
Clouds Few 1800 ft
Mostly Cloudy 3100 ft
Overcast 4700 ft
Heat Index 71 °F
Dew Point 72 °F
Humidity 95%
Rainfall 0.60 in
Snow Depth Not available.
UV 0 out of 12
Pollen 2.00 out of 12
Air Quality Not available.
Flu Activity Not available.
SPECI KFMY 200142Z 28005KT 3SM -RA BR FEW018 BKN031 OVC047 23/22 A2995 RMK AO2 RAB25 P0018 T02280217

More Conditions Fewer Conditions

10-Day Weather Forecast

Almanac

Astronomy

Sep. 19, 2014 Rise Set
Actual Time 7:15 AM EDT 7:28 PM EDT
Civil Twilight 6:52 AM EDT 7:51 PM EDT
Nautical Twilight 6:25 AM EDT 8:18 PM EDT
Astronomical Twilight 5:58 AM EDT 8:45 PM EDT
Moon 3:18 AM EDT (9/19) 4:39 PM EDT (9/19)
Length of Visible Light 12h 58m
Length of Day
12h 12m
Tomorrow will be 1m 34s shorter.
Waning Crescent, 15% of the Moon is Illuminated
Today
Waning Crescent
Sep 24
New
Oct 1
First Quarter
Oct 8
Full
Oct 15
Last Quarter

Today's Extremes

State Highs State Lows

Community

WunderPhotos

Upload Photos

1,754,760 photos uploaded!

WunderBlogs® & News

Nearby

Snow Depth

Station Depth Elevation
No new snow has been reported.

Earthquake Activity

City Distance Mag. Time & Date
No recent earthquake activity has been reported nearby.
Minimum magnitude displayed is 2.5.

Coastal Water Temperatures

Place Temperature
No Stations Reporting

Nearby Weather Stations